createdAt,value
2019-01-11T00:01:32.684Z,99916.31
2019-01-11T00:04:01.057Z,99919.00
2019-01-11T00:06:29.434Z,99913.73
2019-01-11T00:08:57.801Z,99917.69
2019-01-11T00:11:26.188Z,99908.07
2019-01-11T00:13:54.554Z,99912.49
2019-01-11T00:16:22.927Z,99912.98
2019-01-11T00:18:51.299Z,99913.81
2019-01-11T00:21:19.687Z,99909.48
2019-01-11T00:23:48.048Z,99913.89
2019-01-11T00:26:16.425Z,99909.10
2019-01-11T00:28:44.801Z,99914.38
2019-01-11T00:31:13.233Z,99914.38
2019-01-11T00:33:41.610Z,99910.09
2019-01-11T00:36:09.983Z,99907.45
2019-01-11T00:38:38.356Z,99903.50
2019-01-11T00:41:06.745Z,99900.48
2019-01-11T00:43:35.114Z,99900.94
2019-01-11T00:46:03.479Z,99899.25
2019-01-11T00:48:31.858Z,99896.61
2019-01-11T00:51:00.225Z,99888.20
2019-01-11T00:53:28.607Z,99888.74
2019-01-11T00:55:56.973Z,99893.97
2019-01-11T00:58:25.352Z,99893.19
2019-01-11T01:00:53.725Z,99896.66
2019-01-11T01:03:22.113Z,99886.19
2019-01-11T01:05:50.476Z,99885.81
2019-01-11T01:08:19.122Z,99880.98
2019-01-11T01:10:47.569Z,99884.95
2019-01-11T01:13:16.116Z,99878.44
2019-01-11T01:15:44.481Z,99885.03
2019-01-11T01:18:12.866Z,99883.25
2019-01-11T01:20:41.311Z,99877.11
2019-01-11T01:23:09.707Z,99880.70
2019-01-11T01:25:38.074Z,99881.61
2019-01-11T01:28:06.461Z,99876.33
2019-01-11T01:30:35.010Z,99878.97
2019-01-11T01:33:03.801Z,99874.18
2019-01-11T01:35:32.164Z,99876.82
2019-01-11T01:38:00.542Z,99875.95
2019-01-11T01:40:28.907Z,99878.19
2019-01-11T01:42:57.279Z,99873.77
2019-01-11T01:45:25.653Z,99877.81
2019-01-11T01:47:54.029Z,99872.16
2019-01-11T01:50:22.401Z,99876.12
2019-01-11T01:52:50.777Z,99869.52
2019-01-11T01:55:19.140Z,99871.67
2019-01-11T01:57:47.501Z,99866.53
2019-01-11T02:00:18.683Z,99867.42
2019-01-11T02:02:47.386Z,99863.47
2019-01-11T02:05:16.299Z,99868.74
2019-01-11T02:07:44.735Z,99863.89
2019-01-11T02:10:14.369Z,99865.20
2019-01-11T02:12:42.801Z,99861.70
2019-01-11T02:15:12.118Z,99864.34
2019-01-11T02:17:40.488Z,99862.65
2019-01-11T02:20:11.978Z,99863.11
2019-01-11T02:22:40.356Z,99861.05
2019-01-11T02:25:09.085Z,99857.00
2019-01-11T02:27:37.449Z,99847.36
2019-01-11T02:30:08.894Z,99854.91
2019-01-11T02:32:37.263Z,99846.58
2019-01-11T02:35:05.985Z,99847.90
2019-01-11T02:37:34.369Z,99839.16
2019-01-11T02:40:03.111Z,99835.66
2019-01-11T02:42:31.497Z,99825.55
2019-01-11T02:44:59.874Z,99828.60
2019-01-11T02:47:28.243Z,99830.45
2019-01-11T02:49:56.617Z,99820.36
2019-01-11T02:52:24.984Z,99818.67
2019-01-11T02:54:53.381Z,99819.45
2019-01-11T02:57:21.752Z,99821.31
2019-01-11T02:59:50.132Z,99814.22
2019-01-11T03:02:18.503Z,99814.71
2019-01-11T03:04:46.888Z,99813.84
2019-01-11T03:07:15.266Z,99808.58
2019-01-11T03:09:43.650Z,99812.16
2019-01-11T03:12:12.017Z,99808.20
2019-01-11T03:14:40.404Z,99801.20
2019-01-11T03:17:08.783Z,99804.70
2019-01-11T03:19:37.166Z,99806.02
2019-01-11T03:22:05.596Z,99801.69
2019-01-11T03:24:34.635Z,99804.78
2019-01-11T03:27:03.011Z,99796.41
2019-01-11T03:29:31.380Z,99791.59
2019-01-11T03:31:59.776Z,99787.64
2019-01-11T03:34:28.146Z,99787.23
2019-01-11T03:36:56.535Z,99785.91
2019-01-11T03:39:24.909Z,99785.08
2019-01-11T03:41:54.936Z,99776.39
2019-01-11T03:44:23.324Z,99782.98
2019-01-11T03:46:51.778Z,99781.21
2019-01-11T03:49:20.156Z,99782.13
2019-01-11T03:51:48.526Z,99780.34
2019-01-11T03:54:16.901Z,99772.06
2019-01-11T03:56:45.286Z,99770.74
2019-01-11T03:59:13.736Z,99772.06
2019-01-11T04:01:42.157Z,99767.33
2019-01-11T04:04:10.565Z,99763.37
2019-01-11T04:06:38.956Z,99762.05
2019-01-11T04:09:09.635Z,99755.05
2019-01-11T04:11:38.022Z,99754.22
2019-01-11T04:14:06.470Z,99752.04
2019-01-11T04:16:35.233Z,99750.72
2019-01-11T04:19:05.238Z,99754.67
2019-01-11T04:21:33.680Z,99748.08
2019-01-11T04:24:02.083Z,99746.84
2019-01-11T04:26:30.448Z,99751.27
2019-01-11T04:28:58.825Z,99748.63
2019-01-11T04:31:27.207Z,99752.98
2019-01-11T04:33:55.583Z,99750.89
2019-01-11T04:36:23.961Z,99755.67
2019-01-11T04:38:52.344Z,99744.75
2019-01-11T04:41:20.719Z,99747.02
2019-01-11T04:43:49.094Z,99745.20
2019-01-11T04:46:17.478Z,99747.47
2019-01-11T04:48:46.127Z,99738.23
2019-01-11T04:51:14.504Z,99741.34
2019-01-11T04:53:42.950Z,99741.25
2019-01-11T04:56:11.398Z,99735.60
2019-01-11T04:58:39.780Z,99736.14
2019-01-11T05:01:08.148Z,99738.33
2019-01-11T05:03:36.529Z,99735.69
2019-01-11T05:06:05.632Z,99737.92
2019-01-11T05:08:34.020Z,99728.69
2019-01-11T05:11:02.391Z,99730.01
2019-01-11T05:13:32.407Z,99730.88
2019-01-11T05:16:00.789Z,99729.17
2019-01-11T05:18:29.171Z,99719.09
2019-01-11T05:20:57.541Z,99720.41
2019-01-11T05:23:25.931Z,99716.36
2019-01-11T05:25:54.297Z,99712.41
2019-01-11T05:28:22.676Z,99712.41
2019-01-11T05:30:51.055Z,99713.36
2019-01-11T05:33:19.428Z,99719.37
2019-01-11T05:35:47.801Z,99715.99
2019-01-11T05:38:16.173Z,99708.16
2019-01-11T05:40:44.549Z,99708.54
2019-01-11T05:43:12.913Z,99714.27
2019-01-11T05:45:41.289Z,99707.22
2019-01-11T05:48:09.668Z,99702.80
2019-01-11T05:50:38.040Z,99708.54
2019-01-11T05:53:06.421Z,99709.48
2019-01-11T05:55:36.436Z,99700.62
2019-01-11T05:58:24.458Z,99709.77
2019-01-11T06:00:52.824Z,99704.13
2019-01-11T06:03:21.212Z,99701.09
2019-01-11T06:05:49.645Z,99699.39
2019-01-11T06:08:18.801Z,99693.34
2019-01-11T06:10:47.169Z,99690.25
2019-01-11T06:13:15.554Z,99691.08
2019-01-11T06:15:43.924Z,99697.21
2019-01-11T06:18:12.300Z,99700.30
2019-01-11T06:20:40.976Z,99703.43
2019-01-11T06:23:09.357Z,99704.84
2019-01-11T06:25:37.743Z,99696.34
2019-01-11T06:28:06.435Z,99702.11
2019-01-11T06:30:34.807Z,99698.16
2019-01-11T06:33:03.181Z,99698.98
2019-01-11T06:35:31.549Z,99701.25
2019-01-11T06:37:59.915Z,99701.25
2019-01-11T06:40:28.295Z,99709.62
2019-01-11T06:42:56.671Z,99711.88
2019-01-11T06:45:25.061Z,99702.28
2019-01-11T06:47:53.457Z,99701.34
2019-01-11T06:50:21.828Z,99699.64
2019-01-11T06:52:50.200Z,99697.47
2019-01-11T06:55:18.663Z,99697.00
2019-01-11T06:57:47.042Z,99693.97
2019-01-11T07:00:17.705Z,99695.28
2019-01-11T07:02:46.072Z,99701.02
2019-01-11T07:05:14.452Z,99699.70
2019-01-11T07:07:42.832Z,99691.78
2019-01-11T07:10:14.270Z,99694.42
2019-01-11T07:12:42.636Z,99702.82
2019-01-11T07:15:11.733Z,99702.82
2019-01-11T07:17:40.127Z,99706.28
2019-01-11T07:20:15.331Z,99707.61
2019-01-11T07:22:44.021Z,99708.09
2019-01-11T07:25:16.323Z,99709.95
2019-01-11T07:27:49.024Z,99710.41
2019-01-11T07:30:17.470Z,99713.98
2019-01-11T07:32:45.846Z,99719.27
2019-01-11T07:35:14.227Z,99714.07
2019-01-11T07:37:42.602Z,99716.22
2019-01-11T07:40:12.521Z,99719.43
2019-01-11T07:42:40.897Z,99720.34
2019-01-11T07:45:11.728Z,99706.70
2019-01-11T07:47:40.105Z,99703.66
2019-01-11T07:50:09.929Z,99704.52
2019-01-11T07:52:38.305Z,99703.61
2019-01-11T07:55:09.553Z,99698.88
2019-01-11T07:57:38.058Z,99704.15
2019-01-11T08:00:12.624Z,99700.56
2019-01-11T08:02:41.064Z,99691.42
2019-01-11T08:05:09.577Z,99690.97
2019-01-11T08:07:37.963Z,99695.30
2019-01-11T08:10:09.279Z,99693.98
2019-01-11T08:12:37.659Z,99694.52
2019-01-11T08:15:11.590Z,99706.78
2019-01-11T08:17:39.984Z,99706.78
2019-01-11T08:20:09.157Z,99701.88
2019-01-11T08:22:39.306Z,99707.48
2019-01-11T08:25:07.817Z,99710.03
2019-01-11T08:27:36.208Z,99706.25
2019-01-11T08:30:07.783Z,99704.44
2019-01-11T08:32:36.240Z,99702.66
2019-01-11T08:35:08.779Z,99707.40
2019-01-11T08:37:38.075Z,99706.16
2019-01-11T08:40:08.957Z,99708.31
2019-01-11T08:42:37.864Z,99703.90
2019-01-11T08:45:09.833Z,99710.33
2019-01-11T08:47:38.219Z,99716.09
2019-01-11T08:50:09.659Z,99704.67
2019-01-11T08:52:38.096Z,99708.63
2019-01-11T08:55:06.543Z,99706.86
2019-01-11T08:57:34.915Z,99706.45
2019-01-11T09:00:04.360Z,99708.72
2019-01-11T09:02:32.740Z,99706.91
2019-01-11T09:05:01.111Z,99711.72
2019-01-11T09:07:29.503Z,99713.50
2019-01-11T09:09:57.869Z,99711.35
2019-01-11T09:12:26.244Z,99704.36
2019-01-11T09:14:54.790Z,99706.53
2019-01-11T09:17:23.241Z,99692.12
2019-01-11T09:19:51.621Z,99697.84
2019-01-11T09:22:20.009Z,99706.62
2019-01-11T09:24:48.395Z,99706.25
2019-01-11T09:27:16.760Z,99707.16
2019-01-11T09:29:46.114Z,99704.52
2019-01-11T09:32:14.543Z,99711.11
2019-01-11T09:34:42.906Z,99713.38
2019-01-11T09:37:11.291Z,99718.64
2019-01-11T09:39:39.665Z,99720.80
2019-01-11T09:42:08.386Z,99724.38
2019-01-11T09:44:36.751Z,99723.52
2019-01-11T09:47:05.286Z,99719.97
2019-01-11T09:49:33.669Z,99711.66
2019-01-11T09:52:02.050Z,99718.23
2019-01-11T09:54:30.437Z,99720.88
2019-01-11T09:56:58.818Z,99713.05
2019-01-11T09:59:27.203Z,99716.09
2019-01-11T10:01:57.237Z,99718.81
2019-01-11T10:04:27.262Z,99714.86
2019-01-11T10:06:57.272Z,99715.77
2019-01-11T10:09:25.652Z,99715.31
2019-01-11T10:11:54.025Z,99717.09
2019-01-11T10:14:22.393Z,99710.13
2019-01-11T10:16:50.770Z,99715.40
2019-01-11T10:19:19.146Z,99704.36
2019-01-11T10:21:47.511Z,99700.12
2019-01-11T10:24:15.889Z,99711.90
2019-01-11T10:26:44.264Z,99710.66
2019-01-11T10:29:12.654Z,99711.03
2019-01-11T10:31:41.025Z,99703.13
2019-01-11T10:34:09.404Z,99707.08
2019-01-11T10:36:37.772Z,99705.30
2019-01-11T10:39:07.824Z,99704.07
2019-01-11T10:41:36.364Z,99706.33
2019-01-11T10:44:04.810Z,99705.47
2019-01-11T10:46:37.077Z,99700.66
2019-01-11T10:49:10.726Z,99693.16
2019-01-11T10:51:39.325Z,99689.20
2019-01-11T10:54:09.349Z,99684.39
2019-01-11T10:56:37.719Z,99689.74
2019-01-11T10:59:06.173Z,99691.43
2019-01-11T11:01:34.548Z,99684.47
2019-01-11T11:04:02.941Z,99676.56
2019-01-11T11:06:31.310Z,99670.88
2019-01-11T11:08:59.708Z,99676.16
2019-01-11T11:11:28.071Z,99677.02
2019-01-11T11:13:56.445Z,99671.74
2019-01-11T11:16:25.121Z,99669.56
2019-01-11T11:18:53.514Z,99667.88
2019-01-11T11:21:21.904Z,99673.06
2019-01-11T11:23:54.014Z,99674.46
2019-01-11T11:26:21.458Z,99674.46
2019-01-11T11:28:50.088Z,99682.38
2019-01-11T11:31:18.463Z,99680.64
2019-01-11T11:33:46.850Z,99669.27
2019-01-11T11:36:15.220Z,99669.65
2019-01-11T11:38:43.600Z,99667.55
2019-01-11T11:41:11.980Z,99669.73
2019-01-11T11:43:40.362Z,99674.06
2019-01-11T11:46:09.861Z,99668.88
2019-01-11T11:48:38.240Z,99669.73
2019-01-11T11:51:06.618Z,99664.46
2019-01-11T11:53:34.988Z,99654.86
2019-01-11T11:56:03.742Z,99651.73
2019-01-11T11:58:32.115Z,99651.28
2019-01-11T12:01:00.501Z,99646.47
2019-01-11T12:03:28.880Z,99647.78
2019-01-11T12:05:57.258Z,99648.64
2019-01-11T12:08:25.641Z,99640.83
2019-01-11T12:10:54.025Z,99634.61
2019-01-11T12:13:22.401Z,99635.47
2019-01-11T12:15:50.777Z,99633.29
2019-01-11T12:18:19.153Z,99626.33
2019-01-11T12:20:47.536Z,99622.83
2019-01-11T12:23:15.916Z,99617.56
2019-01-11T12:25:44.286Z,99615.33
2019-01-11T12:28:12.654Z,99611.38
2019-01-11T12:30:41.030Z,99605.33
2019-01-11T12:33:10.024Z,99608.33
2019-01-11T12:35:38.406Z,99607.51
2019-01-11T12:38:06.769Z,99604.01
2019-01-11T12:40:35.151Z,99598.28
2019-01-11T12:43:03.535Z,99600.84
2019-01-11T12:45:31.915Z,99593.01
2019-01-11T12:48:00.306Z,99595.16
2019-01-11T12:50:28.672Z,99589.97
2019-01-11T12:52:57.052Z,99588.73
2019-01-11T12:55:25.423Z,99583.09
2019-01-11T12:57:53.810Z,99584.41
2019-01-11T13:00:22.184Z,99587.96
2019-01-11T13:02:50.560Z,99576.50
2019-01-11T13:05:20.181Z,99576.42
2019-01-11T13:07:48.555Z,99574.56
2019-01-11T13:10:18.464Z,99572.38
2019-01-11T13:12:46.846Z,99572.30
2019-01-11T13:15:17.458Z,99566.57
2019-01-11T13:17:45.900Z,99563.94
2019-01-11T13:20:16.511Z,99566.57
2019-01-11T13:22:45.033Z,99562.53
2019-01-11T13:25:13.480Z,99559.03
2019-01-11T13:27:41.929Z,99556.77
2019-01-11T13:30:13.274Z,99543.59
2019-01-11T13:32:41.654Z,99548.04
2019-01-11T13:35:11.002Z,99543.77
2019-01-11T13:37:39.389Z,99542.16
2019-01-11T13:40:16.333Z,99552.45
2019-01-11T13:42:44.705Z,99543.22
2019-01-11T13:45:13.617Z,99547.34
2019-01-11T13:47:42.001Z,99545.08
2019-01-11T13:50:34.246Z,99544.31
2019-01-11T13:53:02.692Z,99550.27
2019-01-11T13:55:31.068Z,99545.57
2019-01-11T13:57:59.455Z,99536.27
2019-01-11T14:00:27.892Z,99542.28
2019-01-11T14:02:56.271Z,99542.28
2019-01-11T14:05:24.715Z,99543.14
2019-01-11T14:07:53.168Z,99540.05
2019-01-11T14:10:21.536Z,99545.23
2019-01-11T14:12:49.910Z,99533.00
2019-01-11T14:15:18.282Z,99527.64
2019-01-11T14:17:46.655Z,99519.73
2019-01-11T14:20:15.097Z,99530.65
2019-01-11T14:22:43.476Z,99525.78
2019-01-11T14:25:12.689Z,99528.02
2019-01-11T14:27:41.231Z,99532.83
2019-01-11T14:30:15.637Z,99533.59
2019-01-11T14:32:44.259Z,99535.20
2019-01-11T14:35:12.775Z,99536.98
2019-01-11T14:37:41.200Z,99536.15
2019-01-11T14:40:12.616Z,99530.39
2019-01-11T14:42:41.458Z,99534.28
2019-01-11T14:45:12.572Z,99529.93
2019-01-11T14:47:41.601Z,99536.92
2019-01-11T14:50:18.142Z,99535.20
2019-01-11T14:52:47.154Z,99532.28
2019-01-11T14:55:15.704Z,99534.60
2019-01-11T14:57:44.068Z,99530.10
2019-01-11T15:00:15.812Z,99533.52
2019-01-11T15:02:44.160Z,99530.88
2019-01-11T15:05:13.882Z,99528.33
2019-01-11T15:07:42.253Z,99532.56
2019-01-11T15:10:13.269Z,99526.92
2019-01-11T15:12:41.912Z,99525.78
2019-01-11T15:15:10.489Z,99532.73
2019-01-11T15:17:38.860Z,99533.20
2019-01-11T15:20:10.152Z,99533.28
2019-01-11T15:22:38.554Z,99533.59
2019-01-11T15:25:08.682Z,99536.70
2019-01-11T15:27:37.082Z,99535.83
2019-01-11T15:30:11.152Z,99531.05
2019-01-11T15:32:39.518Z,99525.29
2019-01-11T15:35:08.955Z,99527.09
2019-01-11T15:37:37.349Z,99531.05
2019-01-11T15:40:08.791Z,99533.69
2019-01-11T15:42:37.161Z,99528.55
2019-01-11T15:45:07.483Z,99535.69
2019-01-11T15:47:35.885Z,99535.69
2019-01-11T15:50:07.565Z,99529.50
2019-01-11T15:52:35.979Z,99537.33
2019-01-11T15:55:07.195Z,99536.86
2019-01-11T15:57:41.596Z,99533.28
2019-01-11T16:00:15.845Z,99537.23
2019-01-11T16:02:44.222Z,99541.64
2019-01-11T16:05:12.603Z,99533.73
2019-01-11T16:07:40.970Z,99533.69
2019-01-11T16:10:12.780Z,99530.88
2019-01-11T16:12:41.168Z,99527.70
2019-01-11T16:15:27.894Z,99527.12
2019-01-11T16:17:59.319Z,99526.20
2019-01-11T16:20:27.712Z,99526.13
2019-01-11T16:22:56.100Z,99523.63
2019-01-11T16:25:24.551Z,99524.05
2019-01-11T16:27:53.202Z,99520.97
2019-01-11T16:30:21.586Z,99519.69
2019-01-11T16:32:49.973Z,99516.23
2019-01-11T16:35:18.379Z,99521.47
2019-01-11T16:37:46.842Z,99521.08
2019-01-11T16:40:15.230Z,99525.45
2019-01-11T16:42:43.608Z,99524.62
2019-01-11T16:45:14.203Z,99530.34
2019-01-11T16:47:42.611Z,99532.52
2019-01-11T16:50:14.047Z,99533.86
2019-01-11T16:52:46.247Z,99537.86
2019-01-11T16:55:12.911Z,99525.69
2019-01-11T16:57:41.296Z,99532.78
2019-01-11T17:00:18.087Z,99536.40
2019-01-11T17:02:46.478Z,99525.09
2019-01-11T17:05:15.099Z,99529.07
2019-01-11T17:07:43.543Z,99528.87
2019-01-11T17:10:13.671Z,99528.53
2019-01-11T17:12:42.954Z,99537.03
2019-01-11T17:15:16.992Z,99528.36
2019-01-11T17:17:45.396Z,99537.35
2019-01-11T17:20:16.300Z,99539.24
2019-01-11T17:22:44.758Z,99538.09
2019-01-11T17:25:13.561Z,99534.33
2019-01-11T17:27:43.023Z,99538.00
2019-01-11T17:30:14.792Z,99536.02
2019-01-11T17:32:43.200Z,99536.49
2019-01-11T17:35:11.728Z,99540.56
2019-01-11T17:37:40.123Z,99534.05
2019-01-11T17:40:10.753Z,99536.40
2019-01-11T17:42:39.149Z,99545.92
2019-01-11T17:45:11.136Z,99543.20
2019-01-11T17:47:39.538Z,99539.99
2019-01-11T17:50:11.070Z,99544.31
2019-01-11T17:52:39.470Z,99546.84
2019-01-11T17:55:08.024Z,99549.13
2019-01-11T17:57:36.424Z,99554.00
2019-01-11T18:00:08.653Z,99548.61
2019-01-11T18:02:37.117Z,99548.34
2019-01-11T18:05:07.590Z,99546.24
2019-01-11T18:07:35.976Z,99549.33
2019-01-11T18:10:07.105Z,99549.02
2019-01-11T18:12:35.667Z,99545.23
2019-01-11T18:15:05.926Z,99547.21
2019-01-11T18:17:34.300Z,99550.87
2019-01-11T18:20:02.690Z,99556.75
2019-01-11T18:22:31.071Z,99558.72
2019-01-11T18:24:59.464Z,99568.25
2019-01-11T18:27:27.839Z,99560.48
2019-01-11T18:29:56.224Z,99570.97
2019-01-11T18:32:24.597Z,99565.11
2019-01-11T18:34:52.991Z,99565.00
2019-01-11T18:37:21.379Z,99572.84
2019-01-11T18:39:49.767Z,99572.63
2019-01-11T18:42:18.342Z,99570.73
2019-01-11T18:44:46.734Z,99572.92
2019-01-11T18:47:15.128Z,99576.33
2019-01-11T18:49:43.525Z,99576.69
2019-01-11T18:52:11.904Z,99575.05
2019-01-11T18:54:40.305Z,99575.05
2019-01-11T18:57:08.699Z,99579.41
2019-01-11T18:59:37.083Z,99574.47
2019-01-11T19:02:05.536Z,99580.63
2019-01-11T19:04:34.003Z,99582.59
2019-01-11T19:07:02.384Z,99578.98
2019-01-11T19:09:30.784Z,99578.30
2019-01-11T19:11:59.170Z,99576.05
2019-01-11T19:14:27.554Z,99585.97
2019-01-11T19:16:55.935Z,99585.75
2019-01-11T19:19:24.325Z,99585.25
2019-01-11T19:21:52.712Z,99586.30
2019-01-11T19:24:21.101Z,99591.02
2019-01-11T19:26:49.481Z,99590.34
2019-01-11T19:29:18.624Z,99585.75
2019-01-11T19:31:47.001Z,99588.30
2019-01-11T19:34:15.392Z,99593.13
2019-01-11T19:36:43.772Z,99590.37
2019-01-11T19:39:12.164Z,99593.03
2019-01-11T19:41:40.542Z,99589.44
2019-01-11T19:44:08.922Z,99587.61
2019-01-11T19:46:37.317Z,99591.59
2019-01-11T19:49:05.687Z,99586.79
2019-01-11T19:51:34.077Z,99591.13
2019-01-11T19:54:02.468Z,99588.94
2019-01-11T20:00:07.389Z,99583.64
2019-01-11T20:02:35.762Z,99604.02
2019-01-11T20:05:06.001Z,99598.91
2019-01-11T20:07:34.380Z,99595.42
2019-01-11T20:10:03.338Z,99593.59
2019-01-11T20:12:31.738Z,99590.95
2019-01-11T20:15:00.217Z,99599.77
2019-01-11T20:17:29.480Z,99601.94
2019-01-11T20:19:57.941Z,99590.95
2019-01-11T20:22:26.324Z,99598.91
2019-01-11T20:24:56.548Z,99597.97
2019-01-11T20:27:24.940Z,99603.73
2019-01-11T20:29:53.320Z,99594.92
2019-01-11T20:32:21.704Z,99596.25
2019-01-11T20:34:50.080Z,99603.27
2019-01-11T20:37:22.166Z,99595.03
2019-01-11T20:39:50.485Z,99594.20
2019-01-11T20:42:19.459Z,99594.31
2019-01-11T20:44:47.841Z,99593.45
2019-01-11T20:47:16.219Z,99589.48
2019-01-11T20:49:44.600Z,99582.10
2019-01-11T20:52:12.987Z,99585.72
2019-01-11T20:54:41.368Z,99581.45
2019-01-11T20:57:09.753Z,99582.78
2019-01-11T20:59:38.128Z,99584.68
2019-01-11T21:02:06.686Z,99590.84
2019-01-11T21:04:35.240Z,99586.58
2019-01-11T21:07:03.799Z,99592.48
2019-01-11T21:09:32.173Z,99592.67
2019-01-11T21:12:00.559Z,99591.09
2019-01-11T21:14:28.948Z,99589.48
2019-01-11T21:16:57.386Z,99595.38
2019-01-11T21:19:25.757Z,99599.07
2019-01-11T21:21:54.142Z,99597.38
2019-01-11T21:24:22.515Z,99595.77
2019-01-11T21:26:50.902Z,99602.14
2019-01-11T21:29:19.539Z,99609.80
2019-01-11T21:31:47.924Z,99605.36
2019-01-11T21:34:16.296Z,99604.97
2019-01-11T21:36:44.679Z,99599.02
2019-01-11T21:39:13.051Z,99611.44
2019-01-11T21:41:41.433Z,99610.69
2019-01-11T21:44:09.831Z,99615.62
2019-01-11T21:46:38.197Z,99606.92
2019-01-11T21:49:06.559Z,99625.06
2019-01-11T21:51:35.006Z,99625.28
2019-01-11T21:54:03.443Z,99622.38
2019-01-11T21:56:31.813Z,99624.27
2019-01-11T21:59:00.190Z,99633.14
2019-01-11T22:01:28.560Z,99627.13
2019-01-11T22:03:56.949Z,99626.83
2019-01-11T22:06:25.315Z,99627.39
2019-01-11T22:08:53.705Z,99626.56
2019-01-11T22:11:22.066Z,99626.70
2019-01-11T22:13:50.445Z,99626.34
2019-01-11T22:16:18.810Z,99630.03
2019-01-11T22:18:47.196Z,99638.94
2019-01-11T22:21:15.565Z,99633.34
2019-01-11T22:23:43.947Z,99629.97
2019-01-11T22:26:12.314Z,99626.66
2019-01-11T22:28:40.696Z,99624.12
2019-01-11T22:31:09.061Z,99626.47
2019-01-11T22:33:37.439Z,99623.56
2019-01-11T22:36:06.003Z,99618.44
2019-01-11T22:38:34.381Z,99617.72
2019-01-11T22:41:02.749Z,99616.46
2019-01-11T22:43:31.124Z,99629.33
2019-01-11T22:45:59.494Z,99628.97
2019-01-11T22:48:27.870Z,99628.67
2019-01-11T22:50:56.239Z,99623.12
2019-01-11T22:53:24.617Z,99622.36
2019-01-11T22:55:52.986Z,99621.97
2019-01-11T22:58:21.449Z,99615.95
2019-01-11T23:00:59.335Z,99624.81
2019-01-11T23:03:30.892Z,99618.03
2019-01-11T23:06:09.016Z,99617.73
2019-01-11T23:08:35.060Z,99617.73
2019-01-11T23:11:17.798Z,99611.78
2019-01-11T23:13:46.178Z,99612.84
2019-01-11T23:16:17.591Z,99614.33
2019-01-11T23:18:48.657Z,99613.50
2019-01-11T23:21:17.226Z,99614.53
2019-01-11T23:23:45.602Z,99611.62
2019-01-11T23:26:13.968Z,99613.87
2019-01-11T23:28:42.360Z,99617.08
2019-01-11T23:31:10.724Z,99624.19
2019-01-11T23:33:39.091Z,99622.56
2019-01-11T23:36:07.737Z,99624.38
2019-01-11T23:38:36.132Z,99623.22
2019-01-11T23:41:04.500Z,99623.78
2019-01-11T23:43:32.867Z,99622.56
2019-01-11T23:46:01.245Z,99626.63
2019-01-11T23:48:29.609Z,99620.54
2019-01-11T23:50:57.985Z,99628.11
2019-01-11T23:53:26.348Z,99626.02
2019-01-11T23:55:54.726Z,99626.58
2019-01-11T23:58:23.092Z,99632.37
